createdAt,value
2022-12-08T04:56:25.779Z,4.25
2022-12-08T04:58:29.377Z,3.40
2022-12-08T05:00:33.525Z,8.27
2022-12-08T05:02:40.524Z,3.70
2022-12-08T05:04:44.217Z,2.35
2022-12-08T05:06:47.796Z,3.50
2022-12-08T05:08:52.726Z,3.17
2022-12-08T05:10:56.314Z,3.17
2022-12-08T05:13:02.222Z,4.35
2022-12-08T05:15:07.406Z,4.00
2022-12-08T05:17:11.676Z,4.22
2022-12-08T05:19:17.227Z,6.18
2022-12-08T05:21:20.987Z,5.22
2022-12-08T05:23:25.925Z,4.38
2022-12-08T05:25:29.687Z,3.28
2022-12-08T05:27:33.225Z,2.28
2022-12-08T05:29:36.850Z,3.40
2022-12-08T05:31:40.649Z,8.40
2022-12-08T05:33:46.431Z,2.95
2022-12-08T05:35:49.991Z,2.08
2022-12-08T05:37:57.179Z,3.55
2022-12-08T05:40:02.466Z,4.55
2022-12-08T05:42:06.557Z,2.97
2022-12-08T05:44:10.567Z,2.80
2022-12-08T05:46:14.908Z,7.40
2022-12-08T05:48:18.884Z,3.20
2022-12-08T05:50:23.366Z,4.32
2022-12-08T05:52:26.918Z,5.25
2022-12-08T05:54:30.777Z,3.90
2022-12-08T05:56:34.933Z,7.60
2022-12-08T05:58:40.790Z,8.60
2022-12-08T06:00:45.791Z,4.85
2022-12-08T06:02:50.103Z,6.47
2022-12-08T06:04:53.772Z,5.63
2022-12-08T06:06:57.641Z,4.85
2022-12-08T06:09:01.713Z,5.72
2022-12-08T06:11:05.593Z,5.10
2022-12-08T06:13:10.302Z,6.43
2022-12-08T06:15:13.974Z,4.13
2022-12-08T06:17:17.567Z,6.20
2022-12-08T06:19:22.231Z,5.22
2022-12-08T06:21:27.108Z,7.07
2022-12-08T06:23:30.804Z,8.77
2022-12-08T06:25:35.759Z,6.22
2022-12-08T06:27:39.746Z,9.60
2022-12-08T06:29:44.666Z,8.45
2022-12-08T06:31:48.557Z,5.28
2022-12-08T06:33:57.636Z,5.63
2022-12-08T06:36:03.163Z,6.30
2022-12-08T06:38:06.974Z,5.18
2022-12-08T06:40:12.026Z,6.05
2022-12-08T06:42:35.943Z,6.07
2022-12-08T06:44:41.195Z,5.93
2022-12-08T06:46:44.521Z,9.98
2022-12-08T06:48:49.703Z,8.07
2022-12-08T06:50:54.792Z,8.20
2022-12-08T06:53:05.130Z,6.35
2022-12-08T06:55:16.905Z,8.55
2022-12-08T06:57:34.533Z,7.90
2022-12-08T06:59:38.234Z,7.53
2022-12-08T07:01:41.688Z,3.40
2022-12-08T07:03:46.052Z,8.85
2022-12-08T07:05:49.793Z,6.35
2022-12-08T07:07:54.266Z,5.80
2022-12-08T07:09:58.253Z,7.68
2022-12-08T07:12:02.487Z,6.72
2022-12-08T07:14:07.464Z,5.20
2022-12-08T07:16:13.452Z,6.18
2022-12-08T07:18:16.990Z,4.72
2022-12-08T07:20:21.334Z,8.55
2022-12-08T07:22:24.909Z,6.03
2022-12-08T07:24:29.895Z,10.15
2022-12-08T07:26:35.550Z,9.15
2022-12-08T07:28:41.481Z,9.23
2022-12-08T07:30:45.208Z,8.85
2022-12-08T07:32:50.187Z,7.88
2022-12-08T07:34:54.690Z,7.00
2022-12-08T07:36:59.381Z,9.20
2022-12-08T07:39:02.955Z,10.35
2022-12-08T07:41:07.239Z,7.75
2022-12-08T07:43:10.819Z,3.83
2022-12-08T07:45:15.158Z,9.07
2022-12-08T07:47:18.747Z,9.25
2022-12-08T07:49:23.103Z,6.45
2022-12-08T07:51:26.982Z,12.65
2022-12-08T07:53:31.962Z,9.55
2022-12-08T07:55:35.706Z,8.30
2022-12-08T07:57:39.864Z,12.68
2022-12-08T07:59:43.630Z,9.77
2022-12-08T08:02:06.338Z,12.50
2022-12-08T08:04:12.136Z,6.97
2022-12-08T08:06:15.721Z,10.20
2022-12-08T08:08:20.981Z,9.30
2022-12-08T08:10:24.689Z,11.63
2022-12-08T08:12:32.578Z,12.20
2022-12-08T08:14:37.154Z,13.32
2022-12-08T08:16:48.759Z,9.55
2022-12-08T08:18:53.637Z,11.10
2022-12-08T08:20:58.119Z,7.85
2022-12-08T08:23:01.758Z,9.40
2022-12-08T08:25:05.759Z,10.85
2022-12-08T08:27:09.512Z,8.68
2022-12-08T08:29:14.008Z,7.18
2022-12-08T08:31:17.597Z,9.52
2022-12-08T08:33:22.581Z,9.52
2022-12-08T08:35:26.692Z,9.18
2022-12-08T08:37:31.343Z,10.23
2022-12-08T08:39:35.534Z,10.05
2022-12-08T08:41:39.274Z,12.70
2022-12-08T08:43:42.860Z,8.85
2022-12-08T08:45:46.616Z,8.77
2022-12-08T08:47:50.759Z,9.70
2022-12-08T08:49:55.039Z,9.75
2022-12-08T08:51:58.662Z,14.55
2022-12-08T08:54:02.404Z,14.13
2022-12-08T08:56:12.952Z,18.23
2022-12-08T08:58:17.070Z,13.25
2022-12-08T09:00:21.261Z,13.40
2022-12-08T09:02:26.249Z,12.65
2022-12-08T09:04:30.096Z,16.45
2022-12-08T09:06:34.384Z,14.50
2022-12-08T09:08:37.973Z,14.80
2022-12-08T09:10:42.899Z,16.13
2022-12-08T09:12:47.188Z,16.27
2022-12-08T09:14:50.788Z,14.70
2022-12-08T09:16:54.353Z,15.50
2022-12-08T09:18:59.286Z,20.08
2022-12-08T09:21:08.450Z,20.60
2022-12-08T09:23:13.369Z,14.65
2022-12-08T09:25:17.118Z,22.05
2022-12-08T09:27:21.435Z,17.77
2022-12-08T09:29:32.507Z,19.60
2022-12-08T09:31:40.298Z,22.65
2022-12-08T09:33:44.679Z,23.48
2022-12-08T09:35:48.502Z,20.42
2022-12-08T09:37:52.300Z,16.80
2022-12-08T09:39:56.568Z,19.90
2022-12-08T09:42:03.848Z,18.38
2022-12-08T09:44:48.851Z,17.20
2022-12-08T09:46:55.382Z,16.88
2022-12-08T09:49:03.842Z,15.57
2022-12-08T09:51:08.508Z,16.58
2022-12-08T09:53:28.324Z,19.50
2022-12-08T09:55:49.365Z,20.25
2022-12-08T09:58:02.944Z,19.05
2022-12-08T10:00:09.240Z,19.98
2022-12-08T10:02:26.097Z,18.13
2022-12-08T10:04:41.877Z,15.90
2022-12-08T10:07:10.075Z,22.48
2022-12-08T10:09:28.448Z,13.52
2022-12-08T10:11:53.561Z,13.82
2022-12-08T10:14:06.715Z,12.05
2022-12-08T10:16:30.193Z,15.85
2022-12-08T10:18:36.966Z,17.38
2022-12-08T10:20:44.342Z,15.68
2022-12-08T10:22:58.769Z,14.38
2022-12-08T10:25:10.160Z,13.88
2022-12-08T10:27:15.079Z,15.32
2022-12-08T10:29:20.103Z,12.45
2022-12-08T10:31:27.080Z,14.07
2022-12-08T10:33:36.241Z,15.70
2022-12-08T10:35:48.463Z,17.67
2022-12-08T10:38:00.320Z,13.15
2022-12-08T10:40:15.334Z,19.58
2022-12-08T10:42:24.170Z,14.98
2022-12-08T10:44:29.020Z,16.42
2022-12-08T10:46:34.494Z,21.20
2022-12-08T10:48:38.207Z,21.05
2022-12-08T10:50:48.668Z,16.83
2022-12-08T10:53:03.721Z,16.33
2022-12-08T10:55:17.915Z,14.95
2022-12-08T10:57:26.924Z,18.10
2022-12-08T10:59:31.337Z,16.85
2022-12-08T11:01:41.618Z,16.55
2022-12-08T11:04:00.013Z,20.75
2022-12-08T11:06:14.971Z,24.75
2022-12-08T11:08:18.648Z,16.98
2022-12-08T11:10:31.067Z,18.98
2022-12-08T11:14:46.061Z,16.55
2022-12-08T11:16:51.477Z,16.95
2022-12-08T11:19:00.729Z,17.98
2022-12-08T11:21:12.567Z,22.73
2022-12-08T11:23:25.874Z,20.05
2022-12-08T11:25:31.494Z,22.23
2022-12-08T11:27:38.718Z,18.73
2022-12-08T11:29:43.663Z,20.17
2022-12-08T11:31:54.128Z,21.35
2022-12-08T11:33:59.808Z,25.75
2022-12-08T11:36:11.040Z,22.80
2022-12-08T11:38:22.250Z,26.67
2022-12-08T11:40:40.724Z,19.00
2022-12-08T11:43:02.097Z,24.20
2022-12-08T11:45:16.570Z,25.23
2022-12-08T11:47:26.468Z,24.83
2022-12-08T11:49:42.456Z,31.40
2022-12-08T11:51:53.267Z,35.78
2022-12-08T11:54:11.149Z,26.83
2022-12-08T11:56:43.417Z,29.70
2022-12-08T11:58:55.356Z,27.67
2022-12-08T12:01:01.222Z,36.97
2022-12-08T12:03:23.037Z,42.72
2022-12-08T12:06:09.308Z,33.58
2022-12-08T12:08:32.050Z,39.90
2022-12-08T12:11:04.246Z,32.97
2022-12-08T12:13:47.242Z,37.13
2022-12-08T12:16:29.852Z,40.58
2022-12-08T12:18:50.430Z,34.92
2022-12-08T12:21:09.422Z,35.72
2022-12-08T12:23:28.733Z,41.67
2022-12-08T12:25:39.363Z,37.50
2022-12-08T12:27:57.085Z,32.42
2022-12-08T12:30:10.622Z,31.38
2022-12-08T12:32:15.673Z,41.08
2022-12-08T12:34:27.927Z,36.92
2022-12-08T12:39:00.284Z,46.00
2022-12-08T12:41:07.404Z,42.42
2022-12-08T12:43:14.593Z,37.90
2022-12-08T12:45:29.152Z,37.75
2022-12-08T12:47:56.971Z,44.03
2022-12-08T12:50:09.303Z,37.88
2022-12-08T12:52:20.835Z,38.88
2022-12-08T12:54:29.933Z,48.50
2022-12-08T12:56:58.797Z,41.75
2022-12-08T12:59:31.625Z,43.30
2022-12-08T17:30:04.530Z,103.95
2022-12-08T17:32:08.837Z,117.97
2022-12-08T17:34:14.646Z,111.50
2022-12-08T17:36:20.436Z,107.43
2022-12-08T17:38:25.744Z,124.40
2022-12-08T17:40:30.021Z,102.13
2022-12-08T17:42:34.392Z,97.90
2022-12-08T17:44:39.489Z,99.35
2022-12-08T17:46:49.153Z,110.45
2022-12-08T17:48:56.513Z,113.43
2022-12-08T17:51:00.863Z,102.25
2022-12-08T17:53:04.683Z,98.32
2022-12-08T17:55:10.222Z,107.15
2022-12-08T17:57:13.901Z,99.82
2022-12-08T17:59:17.634Z,99.97
2022-12-08T18:01:22.462Z,113.60
2022-12-08T18:03:28.484Z,118.95
2022-12-08T18:05:38.186Z,100.10
2022-12-08T18:07:43.577Z,84.40
2022-12-08T18:09:48.057Z,111.10
2022-12-08T18:11:52.507Z,98.93
2022-12-08T18:13:58.336Z,112.60
2022-12-08T18:16:02.666Z,109.30
2022-12-08T18:18:07.553Z,108.50
2022-12-08T18:20:13.292Z,100.55
2022-12-08T18:22:18.545Z,89.95
2022-12-08T18:24:26.203Z,99.95
2022-12-08T18:26:31.915Z,107.97
2022-12-08T18:28:36.113Z,102.30
2022-12-08T18:30:49.927Z,101.82
2022-12-08T18:33:12.773Z,112.35
2022-12-08T18:35:22.293Z,104.90
2022-12-08T18:37:27.794Z,96.78
2022-12-08T18:39:46.273Z,114.15
2022-12-08T18:41:59.723Z,110.40
2022-12-08T18:44:04.613Z,117.05
2022-12-08T18:46:21.405Z,118.45
2022-12-08T18:48:28.945Z,117.43
2022-12-08T18:50:47.248Z,106.55
2022-12-08T18:53:02.635Z,114.85
2022-12-08T18:55:08.441Z,118.05
2022-12-08T18:57:14.244Z,121.35
2022-12-08T18:59:18.983Z,105.47
2022-12-08T19:01:23.290Z,106.50
2022-12-08T19:03:27.034Z,99.63
2022-12-08T19:05:31.235Z,116.57
2022-12-08T19:07:46.058Z,97.70
2022-12-08T19:09:51.093Z,105.03
2022-12-08T19:11:54.758Z,106.43
2022-12-08T19:13:58.772Z,103.35
2022-12-08T19:16:02.754Z,108.60
2022-12-08T19:18:07.117Z,104.05
2022-12-08T19:20:13.577Z,101.32
2022-12-08T19:22:17.993Z,98.95
2022-12-08T19:24:27.377Z,101.90
2022-12-08T19:26:43.748Z,101.75
2022-12-08T19:28:51.034Z,100.78
2022-12-08T19:30:56.189Z,103.28
2022-12-08T19:33:00.682Z,98.80
2022-12-08T19:35:10.153Z,107.28
2022-12-08T19:37:15.332Z,104.82
2022-12-08T19:39:41.836Z,98.13
2022-12-08T19:42:04.086Z,93.63
2022-12-08T19:44:28.308Z,95.15
2022-12-08T19:46:36.042Z,87.93
2022-12-08T19:48:45.698Z,93.40
2022-12-08T19:50:50.173Z,87.97
2022-12-08T19:52:54.562Z,97.50
2022-12-08T19:55:00.516Z,93.93
2022-12-08T19:57:05.474Z,100.15
2022-12-08T19:59:10.051Z,87.05
2022-12-08T20:01:15.013Z,90.65
2022-12-08T20:03:22.177Z,84.57
2022-12-08T20:05:27.155Z,91.40
2022-12-08T20:07:32.435Z,97.40
2022-12-08T20:09:37.332Z,94.95
2022-12-08T20:11:43.073Z,89.47
2022-12-08T20:13:48.805Z,91.30
2022-12-08T20:15:52.761Z,95.97
2022-12-08T20:17:57.013Z,98.35
2022-12-08T20:20:06.605Z,97.47
2022-12-08T20:22:19.375Z,106.60
2022-12-08T20:26:29.699Z,91.00
2022-12-08T20:28:33.297Z,93.07
2022-12-08T20:30:40.251Z,99.55
2022-12-08T20:32:44.481Z,106.30
2022-12-08T20:34:48.538Z,104.35
2022-12-08T20:36:53.574Z,99.93
2022-12-08T20:38:57.809Z,108.38
2022-12-08T20:41:02.179Z,115.28
2022-12-08T20:43:05.888Z,107.93
2022-12-08T20:45:11.460Z,122.97
2022-12-08T20:47:16.993Z,133.85
2022-12-08T20:49:22.326Z,136.23
2022-12-08T20:51:31.707Z,122.95
2022-12-08T20:53:37.209Z,111.75
2022-12-08T20:55:44.861Z,119.78
2022-12-08T20:57:49.222Z,117.78
2022-12-08T20:59:53.962Z,123.85
2022-12-08T21:01:58.583Z,110.65
2022-12-08T21:04:03.977Z,108.15
2022-12-08T21:06:09.275Z,120.47
2022-12-08T21:08:13.372Z,120.00
2022-12-08T21:10:17.385Z,122.22
2022-12-08T21:12:22.492Z,127.20
2022-12-08T21:14:26.994Z,118.88
2022-12-08T21:16:32.208Z,126.53
2022-12-08T21:18:39.634Z,121.88
2022-12-08T21:20:45.774Z,112.55
2022-12-08T21:22:50.883Z,113.90
2022-12-08T21:24:56.029Z,127.88
2022-12-08T21:27:00.309Z,121.05
2022-12-08T21:29:04.363Z,109.50
2022-12-08T21:31:11.240Z,108.53
2022-12-08T21:33:15.791Z,121.85
2022-12-08T21:35:20.374Z,109.00
2022-12-08T21:37:26.771Z,127.22
2022-12-08T21:39:31.117Z,125.63
2022-12-08T21:41:54.398Z,116.47
2022-12-08T21:43:59.190Z,121.53
2022-12-08T21:46:05.940Z,123.53
2022-12-08T21:48:12.081Z,119.60
2022-12-08T21:50:17.721Z,118.20
2022-12-08T21:52:22.067Z,111.82
2022-12-08T21:54:26.535Z,117.13
2022-12-08T21:56:30.885Z,109.63
2022-12-08T21:58:35.360Z,100.10
2022-12-08T22:00:39.630Z,105.88
2022-12-08T22:02:44.493Z,90.15
2022-12-08T22:04:50.224Z,95.97
2022-12-08T22:06:55.733Z,89.47
2022-12-08T22:09:00.366Z,91.32
2022-12-08T22:11:04.909Z,100.05
2022-12-08T22:13:09.295Z,90.05
2022-12-08T22:15:14.148Z,95.25
2022-12-08T22:17:18.899Z,96.43
2022-12-08T22:19:24.133Z,105.53
2022-12-08T22:21:27.497Z,100.63
2022-12-08T22:23:33.085Z,99.40
2022-12-08T22:25:37.622Z,93.10
2022-12-08T22:27:43.118Z,88.68
2022-12-08T22:29:48.366Z,84.63
2022-12-08T22:31:52.874Z,85.80
2022-12-08T22:33:56.666Z,85.32
